sensor_id;sensor_type;location;lat;lon;timestamp;temperature;humidity
6956;DHT22;50345;51.136;16.886;2023-03-20T00:02:17;11.30;99.90
6956;DHT22;50345;51.136;16.886;2023-03-20T00:04:43;11.20;99.90
6956;DHT22;50345;51.136;16.886;2023-03-20T00:07:09;11.20;99.90
6956;DHT22;50345;51.136;16.886;2023-03-20T00:09:37;11.20;99.90
6956;DHT22;50345;51.136;16.886;2023-03-20T00:12:03;11.10;99.90
6956;DHT22;50345;51.136;16.886;2023-03-20T00:14:29;11.10;99.90
6956;DHT22;50345;51.136;16.886;2023-03-20T00:16:55;11.10;99.90
6956;DHT22;50345;51.136;16.886;2023-03-20T00:19:27;11.10;99.90
6956;DHT22;50345;51.136;16.886;2023-03-20T00:21:56;11.10;99.90
6956;DHT22;50345;51.136;16.886;2023-03-20T00:24:23;11.00;99.90
6956;DHT22;50345;51.136;16.886;2023-03-20T00:26:50;11.00;99.90
6956;DHT22;50345;51.136;16.886;2023-03-20T00:29:24;11.00;99.90
6956;DHT22;50345;51.136;16.886;2023-03-20T00:31:51;11.00;99.90
6956;DHT22;50345;51.136;16.886;2023-03-20T00:34:18;11.00;99.90
6956;DHT22;50345;51.136;16.886;2023-03-20T00:36:45;11.00;99.90
6956;DHT22;50345;51.136;16.886;2023-03-20T00:39:10;11.00;99.90
6956;DHT22;50345;51.136;16.886;2023-03-20T00:41:56;10.90;99.90
6956;DHT22;50345;51.136;16.886;2023-03-20T00:44:45;11.00;99.90
6956;DHT22;50345;51.136;16.886;2023-03-20T00:47:19;11.00;99.90
6956;DHT22;50345;51.136;16.886;2023-03-20T00:49:47;11.00;99.90
6956;DHT22;50345;51.136;16.886;2023-03-20T00:52:18;11.00;99.90
6956;DHT22;50345;51.136;16.886;2023-03-20T00:54:44;11.10;99.90
6956;DHT22;50345;51.136;16.886;2023-03-20T00:57:30;11.10;99.90
6956;DHT22;50345;51.136;16.886;2023-03-20T01:00:04;11.00;99.90
6956;DHT22;50345;51.136;16.886;2023-03-20T01:02:31;11.00;99.90
6956;DHT22;50345;51.136;16.886;2023-03-20T01:04:57;10.90;99.90
6956;DHT22;50345;51.136;16.886;2023-03-20T01:07:22;10.90;99.90
6956;DHT22;50345;51.136;16.886;2023-03-20T01:09:49;10.90;99.90
6956;DHT22;50345;51.136;16.886;2023-03-20T01:12:15;10.90;99.90
6956;DHT22;50345;51.136;16.886;2023-03-20T01:14:42;10.90;99.90
6956;DHT22;50345;51.136;16.886;2023-03-20T01:17:17;10.90;99.90
6956;DHT22;50345;51.136;16.886;2023-03-20T01:19:43;10.90;99.90
6956;DHT22;50345;51.136;16.886;2023-03-20T01:22:09;10.90;99.90
6956;DHT22;50345;51.136;16.886;2023-03-20T01:24:34;10.90;99.90
6956;DHT22;50345;51.136;16.886;2023-03-20T01:27:00;10.90;99.90
6956;DHT22;50345;51.136;16.886;2023-03-20T01:29:28;10.80;99.90
6956;DHT22;50345;51.136;16.886;2023-03-20T01:31:55;10.80;99.90
6956;DHT22;50345;51.136;16.886;2023-03-20T01:34:21;10.80;99.90
6956;DHT22;50345;51.136;16.886;2023-03-20T01:36:52;10.80;99.90
6956;DHT22;50345;51.136;16.886;2023-03-20T01:39:27;10.80;99.90
6956;DHT22;50345;51.136;16.886;2023-03-20T01:41:56;10.90;99.90
6956;DHT22;50345;51.136;16.886;2023-03-20T01:44:25;10.80;99.90
6956;DHT22;50345;51.136;16.886;2023-03-20T01:46:52;10.80;99.90
6956;DHT22;50345;51.136;16.886;2023-03-20T01:51:44;10.80;99.90
6956;DHT22;50345;51.136;16.886;2023-03-20T01:54:19;10.80;99.90
6956;DHT22;50345;51.136;16.886;2023-03-20T01:56:59;10.80;99.90
6956;DHT22;50345;51.136;16.886;2023-03-20T01:59:41;10.80;99.90
6956;DHT22;50345;51.136;16.886;2023-03-20T02:02:08;10.80;99.90
6956;DHT22;50345;51.136;16.886;2023-03-20T02:04:41;10.80;99.90
6956;DHT22;50345;51.136;16.886;2023-03-20T02:07:09;10.70;99.90
6956;DHT22;50345;51.136;16.886;2023-03-20T02:09:35;10.70;99.90
6956;DHT22;50345;51.136;16.886;2023-03-20T02:12:02;10.70;99.90
6956;DHT22;50345;51.136;16.886;2023-03-20T02:14:28;10.80;99.90
6956;DHT22;50345;51.136;16.886;2023-03-20T02:16:55;10.80;99.90
6956;DHT22;50345;51.136;16.886;2023-03-20T02:30:32;10.80;99.90
6956;DHT22;50345;51.136;16.886;2023-03-20T02:43:47;10.50;99.90
6956;DHT22;50345;51.136;16.886;2023-03-20T02:52:05;10.50;99.90
6956;DHT22;50345;51.136;16.886;2023-03-20T02:54:46;10.50;99.90
6956;DHT22;50345;51.136;16.886;2023-03-20T03:00:12;10.60;99.90
6956;DHT22;50345;51.136;16.886;2023-03-20T03:02:46;10.50;99.90
6956;DHT22;50345;51.136;16.886;2023-03-20T03:05:19;10.50;99.90
6956;DHT22;50345;51.136;16.886;2023-03-20T03:07:48;10.50;99.90
6956;DHT22;50345;51.136;16.886;2023-03-20T03:10:20;10.40;99.90
6956;DHT22;50345;51.136;16.886;2023-03-20T03:12:50;10.40;99.90
6956;DHT22;50345;51.136;16.886;2023-03-20T03:15:31;10.50;99.90
6956;DHT22;50345;51.136;16.886;2023-03-20T03:17:58;10.40;99.90
6956;DHT22;50345;51.136;16.886;2023-03-20T03:20:32;10.40;99.90
6956;DHT22;50345;51.136;16.886;2023-03-20T03:22:59;10.40;99.90
6956;DHT22;50345;51.136;16.886;2023-03-20T03:25:31;10.40;99.90
6956;DHT22;50345;51.136;16.886;2023-03-20T03:30:37;10.50;99.90
6956;DHT22;50345;51.136;16.886;2023-03-20T03:33:22;10.50;99.90
6956;DHT22;50345;51.136;16.886;2023-03-20T03:35:50;10.50;99.90
6956;DHT22;50345;51.136;16.886;2023-03-20T03:43:51;10.60;99.90
6956;DHT22;50345;51.136;16.886;2023-03-20T03:46:51;10.60;99.90
6956;DHT22;50345;51.136;16.886;2023-03-20T03:49:30;10.60;99.90
6956;DHT22;50345;51.136;16.886;2023-03-20T03:52:00;10.60;99.90
6956;DHT22;50345;51.136;16.886;2023-03-20T03:54:37;10.50;99.90
6956;DHT22;50345;51.136;16.886;2023-03-20T03:57:06;10.50;99.90
6956;DHT22;50345;51.136;16.886;2023-03-20T03:59:36;10.50;99.90
6956;DHT22;50345;51.136;16.886;2023-03-20T04:02:04;10.50;99.90
6956;DHT22;50345;51.136;16.886;2023-03-20T04:04:33;10.50;99.90
6956;DHT22;50345;51.136;16.886;2023-03-20T04:07:00;10.50;99.90
6956;DHT22;50345;51.136;16.886;2023-03-20T04:09:25;10.50;99.90
6956;DHT22;50345;51.136;16.886;2023-03-20T04:11:52;10.50;99.90
6956;DHT22;50345;51.136;16.886;2023-03-20T04:14:18;10.50;99.90
6956;DHT22;50345;51.136;16.886;2023-03-20T04:16:43;10.50;99.90
6956;DHT22;50345;51.136;16.886;2023-03-20T04:19:09;10.50;99.90
6956;DHT22;50345;51.136;16.886;2023-03-20T04:21:35;10.50;99.90
6956;DHT22;50345;51.136;16.886;2023-03-20T04:24:00;10.50;99.90
6956;DHT22;50345;51.136;16.886;2023-03-20T04:26:26;10.50;99.90
6956;DHT22;50345;51.136;16.886;2023-03-20T04:28:52;10.40;99.90
6956;DHT22;50345;51.136;16.886;2023-03-20T04:31:18;10.40;99.90
6956;DHT22;50345;51.136;16.886;2023-03-20T04:33:44;10.30;99.90
6956;DHT22;50345;51.136;16.886;2023-03-20T04:36:09;10.30;99.90
6956;DHT22;50345;51.136;16.886;2023-03-20T04:38:35;10.30;99.90
6956;DHT22;50345;51.136;16.886;2023-03-20T04:41:01;10.30;99.90
6956;DHT22;50345;51.136;16.886;2023-03-20T04:43:27;10.30;99.90
6956;DHT22;50345;51.136;16.886;2023-03-20T04:45:53;10.40;99.90
6956;DHT22;50345;51.136;16.886;2023-03-20T04:48:18;10.40;99.90
6956;DHT22;50345;51.136;16.886;2023-03-20T04:50:44;10.40;99.90
6956;DHT22;50345;51.136;16.886;2023-03-20T04:53:15;10.40;99.90
6956;DHT22;50345;51.136;16.886;2023-03-20T04:55:41;10.40;99.90
6956;DHT22;50345;51.136;16.886;2023-03-20T04:58:07;10.40;99.90
6956;DHT22;50345;51.136;16.886;2023-03-20T05:00:33;10.40;99.90
6956;DHT22;50345;51.136;16.886;2023-03-20T05:02:58;10.40;99.90
6956;DHT22;50345;51.136;16.886;2023-03-20T05:05:24;10.40;99.90
6956;DHT22;50345;51.136;16.886;2023-03-20T05:07:50;10.40;99.90
6956;DHT22;50345;51.136;16.886;2023-03-20T05:10:17;10.50;99.90
6956;DHT22;50345;51.136;16.886;2023-03-20T05:12:43;10.50;99.90
6956;DHT22;50345;51.136;16.886;2023-03-20T05:15:09;10.50;99.90
6956;DHT22;50345;51.136;16.886;2023-03-20T05:17:35;10.50;99.90
6956;DHT22;50345;51.136;16.886;2023-03-20T05:20:01;10.50;99.90
6956;DHT22;50345;51.136;16.886;2023-03-20T05:22:26;10.60;99.90
6956;DHT22;50345;51.136;16.886;2023-03-20T05:24:52;10.60;99.90
6956;DHT22;50345;51.136;16.886;2023-03-20T05:27:18;10.60;99.90
6956;DHT22;50345;51.136;16.886;2023-03-20T05:29:43;10.60;99.90
6956;DHT22;50345;51.136;16.886;2023-03-20T05:32:09;10.60;99.90
6956;DHT22;50345;51.136;16.886;2023-03-20T05:34:37;10.60;99.90
6956;DHT22;50345;51.136;16.886;2023-03-20T05:37:03;10.70;99.90
6956;DHT22;50345;51.136;16.886;2023-03-20T05:39:28;10.60;99.90
6956;DHT22;50345;51.136;16.886;2023-03-20T05:41:54;10.70;99.90
6956;DHT22;50345;51.136;16.886;2023-03-20T05:44:19;10.70;99.90
6956;DHT22;50345;51.136;16.886;2023-03-20T05:46:45;10.70;99.90
6956;DHT22;50345;51.136;16.886;2023-03-20T05:49:11;10.70;99.90
6956;DHT22;50345;51.136;16.886;2023-03-20T05:51:36;10.70;99.90
6956;DHT22;50345;51.136;16.886;2023-03-20T05:54:02;10.70;99.90
6956;DHT22;50345;51.136;16.886;2023-03-20T05:56:28;10.70;99.90
6956;DHT22;50345;51.136;16.886;2023-03-20T05:58:53;10.80;99.90
6956;DHT22;50345;51.136;16.886;2023-03-20T06:01:19;10.80;99.90
6956;DHT22;50345;51.136;16.886;2023-03-20T06:03:48;10.80;99.90
6956;DHT22;50345;51.136;16.886;2023-03-20T06:06:14;10.80;99.90
6956;DHT22;50345;51.136;16.886;2023-03-20T06:08:40;10.90;99.90
6956;DHT22;50345;51.136;16.886;2023-03-20T06:11:07;10.90;99.90
6956;DHT22;50345;51.136;16.886;2023-03-20T06:13:32;10.90;99.90
6956;DHT22;50345;51.136;16.886;2023-03-20T06:15:59;11.00;99.90
6956;DHT22;50345;51.136;16.886;2023-03-20T06:18:25;11.00;99.90
6956;DHT22;50345;51.136;16.886;2023-03-20T06:20:55;11.10;99.90
6956;DHT22;50345;51.136;16.886;2023-03-20T06:23:21;11.20;99.90
6956;DHT22;50345;51.136;16.886;2023-03-20T06:25:46;11.20;99.90
6956;DHT22;50345;51.136;16.886;2023-03-20T06:28:12;11.30;99.90
6956;DHT22;50345;51.136;16.886;2023-03-20T06:30:38;11.30;99.90
6956;DHT22;50345;51.136;16.886;2023-03-20T06:33:05;11.30;99.90
6956;DHT22;50345;51.136;16.886;2023-03-20T06:35:31;11.30;99.90
6956;DHT22;50345;51.136;16.886;2023-03-20T06:37:58;11.40;99.90
6956;DHT22;50345;51.136;16.886;2023-03-20T06:40:24;11.30;99.90
6956;DHT22;50345;51.136;16.886;2023-03-20T06:42:51;11.30;99.90
6956;DHT22;50345;51.136;16.886;2023-03-20T06:45:17;11.30;99.90
6956;DHT22;50345;51.136;16.886;2023-03-20T06:47:43;11.30;99.90
6956;DHT22;50345;51.136;16.886;2023-03-20T06:50:09;11.40;99.90
6956;DHT22;50345;51.136;16.886;2023-03-20T06:52:34;11.30;99.90
6956;DHT22;50345;51.136;16.886;2023-03-20T06:55:00;11.30;99.90
6956;DHT22;50345;51.136;16.886;2023-03-20T06:57:26;11.30;99.90
6956;DHT22;50345;51.136;16.886;2023-03-20T06:59:51;11.30;99.90
6956;DHT22;50345;51.136;16.886;2023-03-20T07:02:17;11.30;99.90
6956;DHT22;50345;51.136;16.886;2023-03-20T07:04:43;11.30;99.90
6956;DHT22;50345;51.136;16.886;2023-03-20T07:07:08;11.30;99.90
6956;DHT22;50345;51.136;16.886;2023-03-20T07:09:34;11.30;99.90
6956;DHT22;50345;51.136;16.886;2023-03-20T07:12:00;11.40;99.90
6956;DHT22;50345;51.136;16.886;2023-03-20T07:14:26;11.40;99.90
6956;DHT22;50345;51.136;16.886;2023-03-20T07:16:52;11.40;99.90
6956;DHT22;50345;51.136;16.886;2023-03-20T07:19:19;11.40;99.90
6956;DHT22;50345;51.136;16.886;2023-03-20T07:21:44;11.50;99.90
6956;DHT22;50345;51.136;16.886;2023-03-20T07:24:10;11.50;99.90
6956;DHT22;50345;51.136;16.886;2023-03-20T07:26:36;11.50;99.90
6956;DHT22;50345;51.136;16.886;2023-03-20T07:29:02;11.50;99.90
6956;DHT22;50345;51.136;16.886;2023-03-20T07:31:28;11.60;99.90
6956;DHT22;50345;51.136;16.886;2023-03-20T07:33:55;11.60;99.90
6956;DHT22;50345;51.136;16.886;2023-03-20T07:36:21;11.70;99.90
6956;DHT22;50345;51.136;16.886;2023-03-20T07:38:46;11.80;99.90
6956;DHT22;50345;51.136;16.886;2023-03-20T07:41:12;11.90;99.90
6956;DHT22;50345;51.136;16.886;2023-03-20T07:43:38;12.00;99.90
6956;DHT22;50345;51.136;16.886;2023-03-20T07:46:05;12.10;99.90
6956;DHT22;50345;51.136;16.886;2023-03-20T07:48:31;12.10;99.90
6956;DHT22;50345;51.136;16.886;2023-03-20T07:50:57;12.10;99.90
6956;DHT22;50345;51.136;16.886;2023-03-20T07:53:22;12.10;99.90
6956;DHT22;50345;51.136;16.886;2023-03-20T07:55:48;12.00;99.90
6956;DHT22;50345;51.136;16.886;2023-03-20T07:58:14;11.90;99.90
6956;DHT22;50345;51.136;16.886;2023-03-20T08:00:39;11.90;99.90
6956;DHT22;50345;51.136;16.886;2023-03-20T08:03:05;11.80;99.90
6956;DHT22;50345;51.136;16.886;2023-03-20T08:05:31;11.80;99.90
6956;DHT22;50345;51.136;16.886;2023-03-20T08:07:57;11.80;99.90
6956;DHT22;50345;51.136;16.886;2023-03-20T08:10:23;11.80;99.90
6956;DHT22;50345;51.136;16.886;2023-03-20T08:12:48;11.90;99.90
6956;DHT22;50345;51.136;16.886;2023-03-20T08:15:14;12.00;99.90
6956;DHT22;50345;51.136;16.886;2023-03-20T08:17:46;11.90;99.90
6956;DHT22;50345;51.136;16.886;2023-03-20T08:20:13;11.90;99.90
6956;DHT22;50345;51.136;16.886;2023-03-20T08:22:39;11.90;99.90
6956;DHT22;50345;51.136;16.886;2023-03-20T08:25:06;11.80;99.90
6956;DHT22;50345;51.136;16.886;2023-03-20T08:27:33;11.80;99.90
6956;DHT22;50345;51.136;16.886;2023-03-20T08:29:59;11.80;99.90
6956;DHT22;50345;51.136;16.886;2023-03-20T08:32:24;11.80;99.90
6956;DHT22;50345;51.136;16.886;2023-03-20T08:34:51;11.80;99.90
6956;DHT22;50345;51.136;16.886;2023-03-20T08:37:16;11.90;99.90
6956;DHT22;50345;51.136;16.886;2023-03-20T08:39:42;11.90;99.90
6956;DHT22;50345;51.136;16.886;2023-03-20T08:42:07;11.90;99.90
6956;DHT22;50345;51.136;16.886;2023-03-20T08:44:33;11.90;99.90
6956;DHT22;50345;51.136;16.886;2023-03-20T08:46:59;11.90;99.90
6956;DHT22;50345;51.136;16.886;2023-03-20T08:49:24;12.00;99.90
6956;DHT22;50345;51.136;16.886;2023-03-20T08:51:50;12.10;99.90
6956;DHT22;50345;51.136;16.886;2023-03-20T08:54:15;12.10;99.90
6956;DHT22;50345;51.136;16.886;2023-03-20T08:56:43;12.10;99.90
6956;DHT22;50345;51.136;16.886;2023-03-20T08:59:10;12.30;99.90
6956;DHT22;50345;51.136;16.886;2023-03-20T09:01:36;12.40;99.90
6956;DHT22;50345;51.136;16.886;2023-03-20T09:04:01;12.50;99.90
6956;DHT22;50345;51.136;16.886;2023-03-20T09:06:27;12.60;99.90
6956;DHT22;50345;51.136;16.886;2023-03-20T09:08:54;12.70;99.90
6956;DHT22;50345;51.136;16.886;2023-03-20T09:11:19;12.80;99.90
6956;DHT22;50345;51.136;16.886;2023-03-20T09:13:45;12.80;99.90
6956;DHT22;50345;51.136;16.886;2023-03-20T09:16:11;12.80;99.90
6956;DHT22;50345;51.136;16.886;2023-03-20T09:18:36;12.90;99.90
6956;DHT22;50345;51.136;16.886;2023-03-20T09:21:02;12.90;99.90
6956;DHT22;50345;51.136;16.886;2023-03-20T09:23:28;13.00;99.90
6956;DHT22;50345;51.136;16.886;2023-03-20T09:25:53;13.00;99.90
6956;DHT22;50345;51.136;16.886;2023-03-20T09:28:19;13.10;99.90
6956;DHT22;50345;51.136;16.886;2023-03-20T09:30:45;13.50;99.90
6956;DHT22;50345;51.136;16.886;2023-03-20T09:33:11;13.70;99.90
6956;DHT22;50345;51.136;16.886;2023-03-20T09:35:38;13.80;99.90
6956;DHT22;50345;51.136;16.886;2023-03-20T09:38:04;14.10;99.90
6956;DHT22;50345;51.136;16.886;2023-03-20T09:40:37;14.60;99.90
6956;DHT22;50345;51.136;16.886;2023-03-20T09:43:30;14.80;99.90
6956;DHT22;50345;51.136;16.886;2023-03-20T09:49:12;15.80;99.90
6956;DHT22;50345;51.136;16.886;2023-03-20T09:51:58;16.20;99.90
6956;DHT22;50345;51.136;16.886;2023-03-20T09:54:25;16.20;99.90
6956;DHT22;50345;51.136;16.886;2023-03-20T09:56:51;17.00;99.90
6956;DHT22;50345;51.136;16.886;2023-03-20T09:59:19;17.20;99.90
6956;DHT22;50345;51.136;16.886;2023-03-20T10:04:14;17.20;99.90
6956;DHT22;50345;51.136;16.886;2023-03-20T10:22:21;16.80;99.90
6956;DHT22;50345;51.136;16.886;2023-03-20T10:27:42;17.60;99.90
6956;DHT22;50345;51.136;16.886;2023-03-20T10:30:43;18.10;99.90
6956;DHT22;50345;51.136;16.886;2023-03-20T10:41:34;22.10;80.40
6956;DHT22;50345;51.136;16.886;2023-03-20T10:44:01;23.20;73.70
6956;DHT22;50345;51.136;16.886;2023-03-20T10:46:33;24.60;59.80
6956;DHT22;50345;51.136;16.886;2023-03-20T10:49:03;24.70;59.80
6956;DHT22;50345;51.136;16.886;2023-03-20T10:51:53;25.40;57.00
6956;DHT22;50345;51.136;16.886;2023-03-20T10:54:35;26.40;54.80
6956;DHT22;50345;51.136;16.886;2023-03-20T10:57:05;27.30;51.90
6956;DHT22;50345;51.136;16.886;2023-03-20T10:59:40;27.20;49.40
6956;DHT22;50345;51.136;16.886;2023-03-20T11:02:12;27.00;50.90
6956;DHT22;50345;51.136;16.886;2023-03-20T11:04:38;26.20;50.70
6956;DHT22;50345;51.136;16.886;2023-03-20T11:07:25;25.20;52.30
6956;DHT22;50345;51.136;16.886;2023-03-20T11:10:12;24.60;53.60
6956;DHT22;50345;51.136;16.886;2023-03-20T11:12:41;24.00;54.50
6956;DHT22;50345;51.136;16.886;2023-03-20T11:15:30;23.20;55.50
6956;DHT22;50345;51.136;16.886;2023-03-20T11:20:24;22.00;58.10
6956;DHT22;50345;51.136;16.886;2023-03-20T11:23:05;21.50;59.00
6956;DHT22;50345;51.136;16.886;2023-03-20T11:25:38;21.10;60.90
6956;DHT22;50345;51.136;16.886;2023-03-20T11:28:34;20.90;62.30
6956;DHT22;50345;51.136;16.886;2023-03-20T11:33:39;19.80;69.00
6956;DHT22;50345;51.136;16.886;2023-03-20T11:36:22;19.60;72.40
6956;DHT22;50345;51.136;16.886;2023-03-20T11:38:50;19.40;74.80
6956;DHT22;50345;51.136;16.886;2023-03-20T11:41:27;19.20;78.50
6956;DHT22;50345;51.136;16.886;2023-03-20T11:43:53;19.40;81.80
6956;DHT22;50345;51.136;16.886;2023-03-20T11:46:21;19.80;80.90
6956;DHT22;50345;51.136;16.886;2023-03-20T11:49:01;19.80;81.60
6956;DHT22;50345;51.136;16.886;2023-03-20T11:51:28;20.10;81.60
6956;DHT22;50345;51.136;16.886;2023-03-20T11:54:06;20.40;79.50
6956;DHT22;50345;51.136;16.886;2023-03-20T11:56:33;20.50;79.90
6956;DHT22;50345;51.136;16.886;2023-03-20T11:59:13;20.40;78.40
6956;DHT22;50345;51.136;16.886;2023-03-20T12:01:48;20.30;78.90
6956;DHT22;50345;51.136;16.886;2023-03-20T12:04:16;20.30;80.80
6956;DHT22;50345;51.136;16.886;2023-03-20T12:06:46;20.80;78.10
6956;DHT22;50345;51.136;16.886;2023-03-20T12:09:29;21.00;73.90
6956;DHT22;50345;51.136;16.886;2023-03-20T12:17:26;20.20;75.80
6956;DHT22;50345;51.136;16.886;2023-03-20T12:19:59;20.80;74.90
6956;DHT22;50345;51.136;16.886;2023-03-20T12:22:32;22.30;69.00
6956;DHT22;50345;51.136;16.886;2023-03-20T12:27:54;25.70;53.20
6956;DHT22;50345;51.136;16.886;2023-03-20T12:30:45;26.30;51.50
6956;DHT22;50345;51.136;16.886;2023-03-20T12:33:26;26.50;50.90
6956;DHT22;50345;51.136;16.886;2023-03-20T12:35:57;27.30;48.60
6956;DHT22;50345;51.136;16.886;2023-03-20T12:38:27;28.30;45.80
6956;DHT22;50345;51.136;16.886;2023-03-20T12:43:39;29.00;44.40
6956;DHT22;50345;51.136;16.886;2023-03-20T12:54:42;29.00;43.90
6956;DHT22;50345;51.136;16.886;2023-03-20T12:57:21;29.30;43.30
6956;DHT22;50345;51.136;16.886;2023-03-20T13:09:16;30.10;40.80
6956;DHT22;50345;51.136;16.886;2023-03-20T13:11:19;28.90;42.50
6956;DHT22;50345;51.136;16.886;2023-03-20T13:14:08;27.20;44.30
6956;DHT22;50345;51.136;16.886;2023-03-20T13:19:30;24.10;51.40
6956;DHT22;50345;51.136;16.886;2023-03-20T13:22:31;22.70;57.30
6956;DHT22;50345;51.136;16.886;2023-03-20T13:25:31;21.30;62.50
6956;DHT22;50345;51.136;16.886;2023-03-20T13:28:06;20.40;76.80
6956;DHT22;50345;51.136;16.886;2023-03-20T13:33:35;19.90;99.90
6956;DHT22;50345;51.136;16.886;2023-03-20T13:39:20;23.30;97.20
6956;DHT22;50345;51.136;16.886;2023-03-20T13:41:48;24.10;92.20
6956;DHT22;50345;51.136;16.886;2023-03-20T13:44:15;25.60;82.90
6956;DHT22;50345;51.136;16.886;2023-03-20T13:46:50;27.70;63.70
6956;DHT22;50345;51.136;16.886;2023-03-20T13:52:12;28.70;58.10
6956;DHT22;50345;51.136;16.886;2023-03-20T14:00:41;24.80;58.10
6956;DHT22;50345;51.136;16.886;2023-03-20T14:04:06;23.40;62.30
6956;DHT22;50345;51.136;16.886;2023-03-20T14:08:57;21.30;76.20
6956;DHT22;50345;51.136;16.886;2023-03-20T14:13:55;20.20;87.20
6956;DHT22;50345;51.136;16.886;2023-03-20T14:16:22;19.60;91.80
6956;DHT22;50345;51.136;16.886;2023-03-20T14:19:07;19.10;95.80
6956;DHT22;50345;51.136;16.886;2023-03-20T14:21:34;18.70;99.90
6956;DHT22;50345;51.136;16.886;2023-03-20T14:24:03;18.20;99.90
6956;DHT22;50345;51.136;16.886;2023-03-20T14:26:34;18.00;99.90
6956;DHT22;50345;51.136;16.886;2023-03-20T14:29:30;17.60;99.90
6956;DHT22;50345;51.136;16.886;2023-03-20T14:35:00;17.20;99.90
6956;DHT22;50345;51.136;16.886;2023-03-20T14:40:33;17.10;99.90
6956;DHT22;50345;51.136;16.886;2023-03-20T14:43:11;17.10;99.90
6956;DHT22;50345;51.136;16.886;2023-03-20T14:46:00;17.00;99.90
6956;DHT22;50345;51.136;16.886;2023-03-20T14:48:54;16.80;99.90
6956;DHT22;50345;51.136;16.886;2023-03-20T14:51:41;16.80;99.90
6956;DHT22;50345;51.136;16.886;2023-03-20T14:56:47;16.40;99.90
6956;DHT22;50345;51.136;16.886;2023-03-20T14:59:15;16.20;99.90
6956;DHT22;50345;51.136;16.886;2023-03-20T15:04:22;15.80;99.90
6956;DHT22;50345;51.136;16.886;2023-03-20T15:07:43;15.70;99.90
6956;DHT22;50345;51.136;16.886;2023-03-20T15:09:52;15.60;99.90
6956;DHT22;50345;51.136;16.886;2023-03-20T15:12:24;15.50;99.90
6956;DHT22;50345;51.136;16.886;2023-03-20T15:15:22;15.60;99.90
6956;DHT22;50345;51.136;16.886;2023-03-20T15:17:48;15.60;99.90
6956;DHT22;50345;51.136;16.886;2023-03-20T15:20:26;15.60;99.90
6956;DHT22;50345;51.136;16.886;2023-03-20T15:22:57;15.50;99.90
6956;DHT22;50345;51.136;16.886;2023-03-20T15:25:29;15.50;99.90
6956;DHT22;50345;51.136;16.886;2023-03-20T15:27:56;15.50;99.90
6956;DHT22;50345;51.136;16.886;2023-03-20T15:30:22;15.40;99.90
6956;DHT22;50345;51.136;16.886;2023-03-20T15:32:50;15.30;99.90
6956;DHT22;50345;51.136;16.886;2023-03-20T15:35:19;15.20;99.90
6956;DHT22;50345;51.136;16.886;2023-03-20T15:37:47;15.20;99.90
6956;DHT22;50345;51.136;16.886;2023-03-20T15:42:56;15.00;99.90
6956;DHT22;50345;51.136;16.886;2023-03-20T15:45:30;15.00;99.90
6956;DHT22;50345;51.136;16.886;2023-03-20T15:48:16;15.00;99.90
6956;DHT22;50345;51.136;16.886;2023-03-20T15:50:44;15.10;99.90
6956;DHT22;50345;51.136;16.886;2023-03-20T15:53:28;15.10;99.90
6956;DHT22;50345;51.136;16.886;2023-03-20T15:56:12;15.10;99.90
6956;DHT22;50345;51.136;16.886;2023-03-20T15:58:40;15.10;99.90
6956;DHT22;50345;51.136;16.886;2023-03-20T16:01:07;15.00;99.90
6956;DHT22;50345;51.136;16.886;2023-03-20T16:03:35;14.90;99.90
6956;DHT22;50345;51.136;16.886;2023-03-20T16:06:05;14.70;99.90
6956;DHT22;50345;51.136;16.886;2023-03-20T16:08:34;14.60;99.90
6956;DHT22;50345;51.136;16.886;2023-03-20T16:11:06;14.50;99.90
6956;DHT22;50345;51.136;16.886;2023-03-20T16:13:39;14.40;99.90
6956;DHT22;50345;51.136;16.886;2023-03-20T16:16:07;14.30;99.90
6956;DHT22;50345;51.136;16.886;2023-03-20T16:18:37;14.20;99.90
6956;DHT22;50345;51.136;16.886;2023-03-20T16:21:07;14.20;99.90
6956;DHT22;50345;51.136;16.886;2023-03-20T16:23:40;14.10;99.90
6956;DHT22;50345;51.136;16.886;2023-03-20T16:26:25;14.10;99.90
6956;DHT22;50345;51.136;16.886;2023-03-20T16:28:58;14.00;99.90
6956;DHT22;50345;51.136;16.886;2023-03-20T16:31:30;13.90;99.90
6956;DHT22;50345;51.136;16.886;2023-03-20T16:34:00;13.80;99.90
6956;DHT22;50345;51.136;16.886;2023-03-20T16:36:34;13.70;99.90
6956;DHT22;50345;51.136;16.886;2023-03-20T16:39:07;13.70;99.90
6956;DHT22;50345;51.136;16.886;2023-03-20T16:41:38;13.60;99.90
6956;DHT22;50345;51.136;16.886;2023-03-20T16:44:18;13.60;99.90
6956;DHT22;50345;51.136;16.886;2023-03-20T16:52:02;13.50;99.90
6956;DHT22;50345;51.136;16.886;2023-03-20T16:54:30;13.50;99.90
6956;DHT22;50345;51.136;16.886;2023-03-20T16:56:59;13.50;99.90
6956;DHT22;50345;51.136;16.886;2023-03-20T16:59:25;13.50;99.90
6956;DHT22;50345;51.136;16.886;2023-03-20T17:01:51;13.40;99.90
6956;DHT22;50345;51.136;16.886;2023-03-20T17:04:28;13.40;99.90
6956;DHT22;50345;51.136;16.886;2023-03-20T17:07:13;13.30;99.90
6956;DHT22;50345;51.136;16.886;2023-03-20T17:12:18;13.30;99.90
6956;DHT22;50345;51.136;16.886;2023-03-20T17:14:44;13.30;99.90
6956;DHT22;50345;51.136;16.886;2023-03-20T17:17:21;13.30;99.90
6956;DHT22;50345;51.136;16.886;2023-03-20T17:19:50;13.20;99.90
6956;DHT22;50345;51.136;16.886;2023-03-20T17:22:24;13.10;99.90
6956;DHT22;50345;51.136;16.886;2023-03-20T17:24:50;13.10;99.90
6956;DHT22;50345;51.136;16.886;2023-03-20T17:27:17;13.10;99.90
6956;DHT22;50345;51.136;16.886;2023-03-20T17:29:45;13.00;99.90
6956;DHT22;50345;51.136;16.886;2023-03-20T17:32:13;13.00;99.90
6956;DHT22;50345;51.136;16.886;2023-03-20T17:34:39;13.00;99.90
6956;DHT22;50345;51.136;16.886;2023-03-20T17:37:05;13.00;99.90
6956;DHT22;50345;51.136;16.886;2023-03-20T17:39:32;13.00;99.90
6956;DHT22;50345;51.136;16.886;2023-03-20T17:41:58;12.90;99.90
6956;DHT22;50345;51.136;16.886;2023-03-20T17:44:23;12.90;99.90
6956;DHT22;50345;51.136;16.886;2023-03-20T17:46:49;12.80;99.90
6956;DHT22;50345;51.136;16.886;2023-03-20T17:49:15;12.80;99.90
6956;DHT22;50345;51.136;16.886;2023-03-20T17:51:44;12.80;99.90
6956;DHT22;50345;51.136;16.886;2023-03-20T17:54:09;12.70;99.90
6956;DHT22;50345;51.136;16.886;2023-03-20T17:56:36;12.70;99.90
6956;DHT22;50345;51.136;16.886;2023-03-20T17:59:03;12.70;99.90
6956;DHT22;50345;51.136;16.886;2023-03-20T18:01:31;12.70;99.90
6956;DHT22;50345;51.136;16.886;2023-03-20T18:03:56;12.60;99.90
6956;DHT22;50345;51.136;16.886;2023-03-20T18:06:28;12.60;99.90
6956;DHT22;50345;51.136;16.886;2023-03-20T18:08:55;12.50;99.90
6956;DHT22;50345;51.136;16.886;2023-03-20T18:11:21;12.60;99.90
6956;DHT22;50345;51.136;16.886;2023-03-20T18:13:47;12.50;99.90
6956;DHT22;50345;51.136;16.886;2023-03-20T18:16:20;12.50;99.90
6956;DHT22;50345;51.136;16.886;2023-03-20T18:18:47;12.40;99.90
6956;DHT22;50345;51.136;16.886;2023-03-20T18:21:14;12.40;99.90